Terminal Aerodrome Forecast
Issued by NWS Wilmington, OH

Current Version | Previous Version | Text Only | Print | Product List | Glossary Off
Versions: 1 2 3 4 5 6 7 8 9 10 11 12 13 14 15 16 17 18

296
FTUS41 KILN 210340 AAB
TAFCMH
TAF AMD
KCMH 210340Z 2104/2124 21010KT P6SM VCSH BKN015 BKN035
     FM211100 27009KT P6SM BKN025
     FM211400 26010KT P6SM BKN035=

USA.gov is the U.S. government's official web portal to all federal, state and local government web resources and services.